Morehead, KY

12:14 PM EDT on October 23, 2014 (GMT -0400)
Green | Change Station
CLOSE
Current Station
Personal Weather Station
Location: Olive Hill, KY
Elevation: 883 ft
Nearby Weather Stations

Elev 883 ft 38.19 °N, 83.08 °W | Updated 3 minutes ago

Mostly Cloudy
Mostly Cloudy
55.9 °F
Feels Like 55.9 °F
N
1.0
Wind Variable Wind from NW
Gusts 5.4 mph

Today
High -- | Low -- °F
--% Chance of Precip.
Yesterday
High -- | Low -- °F
Precip. -- in
7:50 AM 6:45 PM
Waning Crescent, 0% visible
Pressure 30.25 in
Visibility 10.0 miles
Clouds Mostly Cloudy 2800 ft
Dew Point 22 °F
Humidity 26%
Rainfall -999.00 in
Snow Depth Not available.
UV 2 out of 12
Pollen .90 out of 12
Air Quality Not available.
Flu Activity Sporadic
METAR KIOB 231555Z AUTO 09006KT 10SM BKN028 12/05 A3025 RMK AO2

More Conditions Fewer Conditions

Pressure 30.25 in
Visibility 10.0 miles
Clouds Mostly Cloudy 2800 ft
Dew Point 22 °F
Humidity 26%
Rainfall -999.00 in
Snow Depth Not available.
UV 2 out of 12
Pollen .90 out of 12
Air Quality Not available.
Flu Activity Sporadic
METAR KIOB 231555Z AUTO 09006KT 10SM BKN028 12/05 A3025 RMK AO2

More Conditions Fewer Conditions

10-Day Weather Forecast

Almanac

Astronomy

Oct. 23, 2014 Rise Set
Actual Time 7:50 AM EDT 6:45 PM EDT
Civil Twilight 7:23 AM EDT 7:11 PM EDT
Nautical Twilight 6:52 AM EDT 7:42 PM EDT
Astronomical Twilight 6:22 AM EDT 8:13 PM EDT
Moon 7:29 AM EDT 6:46 PM EDT
Length of Visible Light 11h 48m
Length of Day
10h 54m
Tomorrow will be 2m 17s shorter.
Waning Crescent, 0% of the Moon is Illuminated
Today
Waning Crescent
Oct 23
New
Oct 30
First Quarter
Nov 6
Full
Nov 14
Last Quarter

Today's Extremes

State Highs State Lows

Community

WunderPhotos

Upload Photos

1,764,290 photos uploaded!

WunderBlogs® & News

By Dr. Jeff Masters
Director of Meteorology, Weather Underground
By Kari Strenfel
Meteorologist, Weather Underground
By Christopher C. Burt
Weather Historian, Weather Underground
October 23, 2014
October 23, 2014
October 23, 2014

Nearby

Snow Depth

Station Depth Elevation
No new snow has been reported.

Earthquake Activity

City Distance Mag. Time & Date
No recent earthquake activity has been reported nearby.
Minimum magnitude displayed is 2.5.

Coastal Water Temperatures

Place Temperature
No Stations Reporting

Nearby Weather Stations